Terminal Aerodrome Forecast
Issued by NWS

Home | Current Version | Previous Version | Text Only | Print | Product List | Glossary On
Versions: 1 2 3 4 5 6 7 8 9 10 11 12 13 14 15 16 17 18 19 20
582
FTUS43 KOAX 220249 AAB
TAFCDR
TAF AMD
KCDR 220249Z 2203/2224 03012KT P6SM SKC
     FM220700 36012KT P6SM SCT100
     FM221800 05010KT P6SM BKN100=

USA.gov is the U.S. government's official web portal to all federal, state and local government web resources and services.